createdAt,value
2022-09-13T00:01:02.392Z,98351.59
2022-09-13T00:03:29.182Z,98351.44
2022-09-13T00:05:55.794Z,98340.63
2022-09-13T00:08:22.471Z,98334.81
2022-09-13T00:10:49.412Z,98335.44
2022-09-13T00:13:17.113Z,98329.19
2022-09-13T00:15:49.053Z,98327.44
2022-09-13T00:18:16.226Z,98328.16
2022-09-13T00:20:42.805Z,98323.78
2022-09-13T00:23:09.595Z,98320.00
2022-09-13T00:25:36.437Z,98319.25
2022-09-13T00:28:03.953Z,98315.78
2022-09-13T00:30:30.900Z,98315.53
2022-09-13T00:32:57.373Z,98315.53
2022-09-13T00:35:24.168Z,98321.00
2022-09-13T00:37:51.074Z,98321.13
2022-09-13T00:40:17.799Z,98322.00
2022-09-13T00:42:44.302Z,98314.13
2022-09-13T00:45:10.829Z,98312.38
2022-09-13T00:47:42.926Z,98307.81
2022-09-13T00:50:21.155Z,98297.84
2022-09-13T00:52:55.750Z,98305.69
2022-09-13T00:55:43.017Z,98297.22
2022-09-13T00:58:17.621Z,98299.41
2022-09-13T01:00:45.233Z,98293.91
2022-09-13T01:03:15.673Z,98294.44
2022-09-13T01:05:46.308Z,98289.66
2022-09-13T01:08:20.429Z,98291.84
2022-09-13T01:10:50.992Z,98291.06
2022-09-13T01:13:23.059Z,98283.00
2022-09-13T01:15:50.136Z,98274.03
2022-09-13T01:18:16.945Z,98274.91
2022-09-13T01:21:00.922Z,98262.47
2022-09-13T01:23:51.056Z,98261.53
2022-09-13T01:26:38.071Z,98266.69
2022-09-13T01:29:25.553Z,98258.47
2022-09-13T01:32:04.129Z,98240.59
2022-09-13T01:34:36.603Z,98236.06
2022-09-13T01:37:24.850Z,98234.44
2022-09-13T01:40:05.961Z,98226.47
2022-09-13T01:43:02.587Z,98214.94
2022-09-13T01:45:45.412Z,98216.63
2022-09-13T01:48:23.308Z,98209.28
2022-09-13T01:51:36.957Z,98212.59
2022-09-13T01:54:15.357Z,98217.97
2022-09-13T01:57:00.455Z,98215.97
2022-09-13T01:59:45.876Z,98220.47
2022-09-13T02:02:23.199Z,98214.50
2022-09-13T02:04:59.140Z,98215.28
2022-09-13T02:07:35.049Z,98214.31
2022-09-13T02:10:09.546Z,98221.59
2022-09-13T02:12:41.592Z,98210.00
2022-09-13T02:15:24.261Z,98213.63
2022-09-13T02:18:00.774Z,98216.63
2022-09-13T02:20:34.963Z,98205.56
2022-09-13T02:23:10.667Z,98186.78
2022-09-13T02:25:39.924Z,98195.75
2022-09-13T02:28:11.029Z,98186.00
2022-09-13T02:30:44.345Z,98179.72
2022-09-13T02:33:33.622Z,98186.50
2022-09-13T02:36:05.906Z,98185.69
2022-09-13T02:38:48.834Z,98183.00
2022-09-13T02:41:23.572Z,98190.09
2022-09-13T02:43:55.679Z,98187.44
2022-09-13T02:46:44.979Z,98192.78
2022-09-13T02:49:34.338Z,98192.94
2022-09-13T02:52:09.750Z,98191.97
2022-09-13T02:55:04.627Z,98188.69
2022-09-13T02:57:42.291Z,98195.75
2022-09-13T03:00:09.934Z,98185.69
2022-09-13T03:02:37.932Z,98186.63
2022-09-13T03:05:04.687Z,98199.22
2022-09-13T03:07:31.165Z,98192.94
2022-09-13T03:10:06.246Z,98196.25
2022-09-13T03:12:50.985Z,98190.91
2022-09-13T03:15:17.635Z,98186.34
2022-09-13T03:18:04.239Z,98191.59
2022-09-13T03:20:37.116Z,98189.72
2022-09-13T03:23:17.222Z,98189.72
2022-09-13T03:26:17.333Z,98197.47
2022-09-13T03:29:08.856Z,98197.63
2022-09-13T03:31:53.608Z,98195.75
2022-09-13T03:34:38.537Z,98205.28
2022-09-13T03:37:17.432Z,98195.44
2022-09-13T03:39:54.648Z,98199.63
2022-09-13T03:42:59.457Z,98207.19
2022-09-13T03:45:31.318Z,98211.59
2022-09-13T03:47:58.559Z,98212.44
2022-09-13T03:50:26.356Z,98210.09
2022-09-13T03:53:00.286Z,98218.38
2022-09-13T03:55:27.698Z,98221.50
2022-09-13T03:57:54.195Z,98212.25
2022-09-13T04:00:21.161Z,98214.28
2022-09-13T04:02:47.994Z,98213.63
2022-09-13T04:05:14.553Z,98209.56
2022-09-13T04:07:41.090Z,98215.44
2022-09-13T04:10:11.834Z,98214.22
2022-09-13T04:12:41.338Z,98214.72
2022-09-13T04:15:08.825Z,98212.47
2022-09-13T04:17:36.300Z,98226.97
2022-09-13T04:20:03.480Z,98209.19
2022-09-13T04:22:29.961Z,98211.94
2022-09-13T04:25:01.503Z,98223.66
2022-09-13T04:27:28.985Z,98218.25
2022-09-13T04:29:55.423Z,98216.50
2022-09-13T04:32:22.025Z,98219.31
2022-09-13T04:34:48.471Z,98215.16
2022-09-13T04:37:14.963Z,98210.13
2022-09-13T04:39:41.413Z,98204.94
2022-09-13T04:42:09.208Z,98194.38
2022-09-13T04:44:35.874Z,98193.44
2022-09-13T04:47:02.710Z,98190.78
2022-09-13T04:49:29.179Z,98196.13
2022-09-13T04:51:55.663Z,98190.78
2022-09-13T04:54:22.302Z,98189.84
2022-09-13T04:56:49.496Z,98185.28
2022-09-13T04:59:16.874Z,98165.78
2022-09-13T05:01:43.570Z,98164.09
2022-09-13T05:04:10.598Z,98173.69
2022-09-13T05:06:37.149Z,98157.53
2022-09-13T05:09:04.490Z,98154.81
2022-09-13T05:11:31.353Z,98170.66
2022-09-13T05:13:59.923Z,98173.22
2022-09-13T05:16:28.816Z,98172.16
2022-09-13T05:18:55.778Z,98164.09
2022-09-13T05:21:22.479Z,98165.94
2022-09-13T05:23:49.877Z,98162.41
2022-09-13T05:26:17.040Z,98163.34
2022-09-13T05:28:43.873Z,98162.53
2022-09-13T05:31:16.192Z,98166.19
2022-09-13T05:33:43.669Z,98170.56
2022-09-13T05:36:10.154Z,98176.59
2022-09-13T05:38:36.802Z,98173.66
2022-09-13T05:41:05.472Z,98181.81
2022-09-13T05:43:34.696Z,98178.19
2022-09-13T05:46:07.071Z,98187.97
2022-09-13T05:48:35.067Z,98186.13
2022-09-13T05:51:22.022Z,98182.38
2022-09-13T05:53:50.694Z,98183.25
2022-09-13T05:56:35.061Z,98187.66
2022-09-13T05:59:01.540Z,98186.66
2022-09-13T06:01:29.298Z,98189.22
2022-09-13T06:03:59.236Z,98186.53
2022-09-13T06:06:26.089Z,98190.16
2022-09-13T06:08:53.731Z,98180.28
2022-09-13T06:11:20.319Z,98182.13
2022-09-13T06:13:46.847Z,98185.72
2022-09-13T06:16:16.173Z,98177.63
2022-09-13T06:18:43.397Z,98176.47
2022-09-13T06:21:17.508Z,98187.13
2022-09-13T06:23:48.744Z,98185.25
2022-09-13T06:26:17.712Z,98174.53
2022-09-13T06:28:49.090Z,98176.19
2022-09-13T06:31:18.070Z,98177.00
2022-09-13T06:33:45.098Z,98172.34
2022-09-13T06:36:18.132Z,98167.41
2022-09-13T06:38:46.649Z,98174.34
2022-09-13T06:41:15.707Z,98173.34
2022-09-13T06:43:42.407Z,98170.47
2022-09-13T06:46:15.463Z,98171.31
2022-09-13T06:48:43.716Z,98171.22
2022-09-13T06:51:13.083Z,98171.09
2022-09-13T06:53:41.064Z,98168.28
2022-09-13T06:56:10.684Z,98162.47
2022-09-13T06:58:38.683Z,98159.41
2022-09-13T07:01:29.718Z,98158.66
2022-09-13T07:04:11.691Z,98166.03
2022-09-13T07:06:40.502Z,98169.09
2022-09-13T07:09:11.036Z,98163.50
2022-09-13T07:11:40.013Z,98167.91
2022-09-13T07:14:07.695Z,98172.13
2022-09-13T07:16:38.515Z,98176.47
2022-09-13T07:19:07.738Z,98180.81
2022-09-13T07:21:35.666Z,98179.81
2022-09-13T07:24:02.390Z,98176.13
2022-09-13T07:26:28.995Z,98179.53
2022-09-13T07:28:59.306Z,98187.53
2022-09-13T07:31:47.407Z,98182.81
2022-09-13T07:34:15.926Z,98179.94
2022-09-13T07:36:43.072Z,98174.25
2022-09-13T07:39:14.352Z,98172.09
2022-09-13T07:41:44.415Z,98180.72
2022-09-13T07:44:11.888Z,98176.97
2022-09-13T07:46:43.753Z,98179.66
2022-09-13T07:49:12.937Z,98182.03
2022-09-13T07:51:41.824Z,98182.69
2022-09-13T07:54:12.087Z,98189.56
2022-09-13T07:56:40.857Z,98180.44
2022-09-13T07:59:12.599Z,98176.53
2022-09-13T08:01:44.619Z,98174.56
2022-09-13T08:04:13.977Z,98178.72
2022-09-13T08:06:43.325Z,98172.16
2022-09-13T08:09:10.647Z,98164.91
2022-09-13T08:11:45.941Z,98170.13
2022-09-13T08:14:14.686Z,98168.22
2022-09-13T08:16:41.243Z,98172.38
2022-09-13T08:19:10.591Z,98167.53
2022-09-13T08:21:39.676Z,98169.38
2022-09-13T08:24:08.688Z,98178.94
2022-09-13T08:26:36.465Z,98175.06
2022-09-13T08:29:06.289Z,98186.38
2022-09-13T08:31:33.760Z,98190.72
2022-09-13T08:34:00.568Z,98186.31
2022-09-13T08:36:28.426Z,98187.00
2022-09-13T08:38:59.130Z,98188.66
2022-09-13T08:41:34.842Z,98184.81
2022-09-13T08:44:23.826Z,98190.19
2022-09-13T08:46:51.042Z,98204.56
2022-09-13T08:49:27.408Z,98197.03
2022-09-13T08:51:58.667Z,98203.44
2022-09-13T08:54:25.668Z,98198.06
2022-09-13T08:57:06.278Z,98190.06
2022-09-13T08:59:54.111Z,98192.91
2022-09-13T09:02:41.396Z,98187.25
2022-09-13T09:05:16.624Z,98193.56
2022-09-13T09:07:47.574Z,98195.31
2022-09-13T09:10:19.127Z,98195.16
2022-09-13T09:12:48.383Z,98192.63
2022-09-13T09:15:22.680Z,98191.69
2022-09-13T09:18:09.442Z,98196.81
2022-09-13T09:20:50.385Z,98195.06
2022-09-13T09:23:42.010Z,98198.94
2022-09-13T09:26:23.959Z,98209.78
2022-09-13T09:28:54.089Z,98200.53
2022-09-13T09:31:35.739Z,98197.53
2022-09-13T09:34:08.180Z,98193.75
2022-09-13T09:36:55.666Z,98198.00
2022-09-13T09:39:26.116Z,98194.22
2022-09-13T09:41:57.558Z,98195.97
2022-09-13T09:44:31.197Z,98189.63
2022-09-13T09:47:10.768Z,98189.63
2022-09-13T09:49:59.554Z,98189.19
2022-09-13T09:52:32.146Z,98187.69
2022-09-13T09:55:23.275Z,98179.59
2022-09-13T09:57:54.676Z,98177.03
2022-09-13T10:00:24.309Z,98189.31
2022-09-13T10:02:55.084Z,98185.88
2022-09-13T10:05:23.848Z,98186.56
2022-09-13T10:07:57.579Z,98184.38
2022-09-13T10:10:29.658Z,98185.97
2022-09-13T10:12:57.372Z,98184.03
2022-09-13T10:15:29.247Z,98175.38
2022-09-13T10:18:03.860Z,98175.28
2022-09-13T10:20:31.503Z,98169.25
2022-09-13T10:23:24.042Z,98172.31
2022-09-13T10:25:59.163Z,98172.34
2022-09-13T10:28:26.850Z,98163.59
2022-09-13T10:30:58.325Z,98164.81
2022-09-13T10:33:32.306Z,98161.25
2022-09-13T10:36:03.187Z,98165.41
2022-09-13T10:38:37.474Z,98161.78
2022-09-13T10:41:11.324Z,98160.69
2022-09-13T10:43:38.293Z,98160.06
2022-09-13T10:46:11.350Z,98156.19
2022-09-13T10:48:47.361Z,98149.06
2022-09-13T10:51:29.364Z,98141.50
2022-09-13T10:54:19.010Z,98149.31
2022-09-13T10:56:46.631Z,98145.66
2022-09-13T10:59:24.766Z,98153.38
2022-09-13T11:02:13.721Z,98143.69
2022-09-13T11:05:18.815Z,98142.69
2022-09-13T11:08:30.525Z,98146.84
2022-09-13T11:11:34.144Z,98144.03
2022-09-13T11:14:22.665Z,98143.69
2022-09-13T11:16:58.829Z,98146.34
2022-09-13T11:19:47.458Z,98138.88
2022-09-13T11:22:43.683Z,98141.41
2022-09-13T11:25:16.770Z,98140.59
2022-09-13T11:27:43.455Z,98133.84
2022-09-13T11:30:18.418Z,98140.63
2022-09-13T11:33:15.141Z,98137.16
2022-09-13T11:35:53.780Z,98145.31
2022-09-13T11:38:58.300Z,98150.16
2022-09-13T11:41:28.373Z,98144.00
2022-09-13T11:43:57.861Z,98144.97
2022-09-13T11:46:35.374Z,98138.81
2022-09-13T11:49:32.772Z,98138.63
2022-09-13T11:52:29.215Z,98143.72
2022-09-13T11:55:26.089Z,98146.34
2022-09-13T11:57:55.913Z,98150.63
2022-09-13T12:00:23.908Z,98146.69
2022-09-13T12:03:26.266Z,98154.34
2022-09-13T12:05:57.884Z,98157.31
2022-09-13T12:08:29.889Z,98170.94
2022-09-13T12:10:59.437Z,98161.69
2022-09-13T12:13:30.107Z,98148.59
2022-09-13T12:16:02.335Z,98156.75
2022-09-13T12:18:37.745Z,98149.47
2022-09-13T12:21:07.440Z,98147.44
2022-09-13T12:23:38.804Z,98152.59
2022-09-13T12:26:13.284Z,98147.31
2022-09-13T12:28:48.456Z,98145.56
2022-09-13T12:31:19.884Z,98144.59
2022-09-13T12:33:48.655Z,98144.38
2022-09-13T12:36:29.698Z,98146.81
2022-09-13T12:39:24.061Z,98137.81
2022-09-13T12:41:50.491Z,98130.00
2022-09-13T12:44:36.847Z,98129.84
2022-09-13T12:47:24.619Z,98124.50
2022-09-13T12:50:21.515Z,98127.16
2022-09-13T12:53:24.144Z,98130.47
2022-09-13T12:56:15.371Z,98127.78
2022-09-13T12:58:57.271Z,98125.25
2022-09-13T13:01:26.426Z,98128.25
2022-09-13T13:04:01.998Z,98124.97
2022-09-13T13:06:41.123Z,98123.94
2022-09-13T13:09:29.069Z,98126.28
2022-09-13T13:11:58.454Z,98128.19
2022-09-13T13:14:40.315Z,98129.22
2022-09-13T13:17:36.586Z,98129.31
2022-09-13T13:20:41.024Z,98128.78
2022-09-13T13:23:20.937Z,98137.94
2022-09-13T13:26:07.986Z,98130.03
2022-09-13T13:28:43.860Z,98131.47
2022-09-13T13:31:27.240Z,98132.75
2022-09-13T13:33:59.498Z,98136.47
2022-09-13T13:36:28.835Z,98145.25
2022-09-13T13:38:59.930Z,98126.75
2022-09-13T13:41:39.714Z,98131.97
2022-09-13T13:44:15.426Z,98134.41
2022-09-13T13:46:42.577Z,98117.25
2022-09-13T13:49:30.937Z,98117.72
2022-09-13T13:52:06.785Z,98118.91
2022-09-13T13:54:42.869Z,98110.16
2022-09-13T13:57:31.010Z,98101.34
2022-09-13T14:00:23.591Z,98105.50
2022-09-13T14:02:50.034Z,98101.94
2022-09-13T14:06:06.019Z,98114.44
2022-09-13T14:08:39.001Z,98105.59
2022-09-13T14:11:17.563Z,98106.88
2022-09-13T14:14:15.406Z,98103.75
2022-09-13T14:17:00.267Z,98108.44
2022-09-13T14:19:27.762Z,98108.56
2022-09-13T14:22:12.303Z,98110.25
2022-09-13T14:24:43.115Z,98103.84
2022-09-13T14:27:23.177Z,98105.78
2022-09-13T14:30:01.713Z,98108.44
2022-09-13T14:32:37.161Z,98107.56
2022-09-13T14:35:21.890Z,98105.97
2022-09-13T14:37:48.347Z,98103.91
2022-09-13T14:40:22.389Z,98096.63
2022-09-13T14:42:51.582Z,98102.88
2022-09-13T14:45:36.046Z,98104.53
2022-09-13T14:48:13.592Z,98099.22
2022-09-13T14:50:46.842Z,98105.38
2022-09-13T14:53:21.114Z,98102.59
2022-09-13T14:55:59.761Z,98105.06
2022-09-13T14:58:36.931Z,98100.97
2022-09-13T15:01:11.513Z,98099.25
2022-09-13T15:03:43.063Z,98095.78
2022-09-13T15:06:30.469Z,98089.16
2022-09-13T15:09:15.180Z,98095.91
2022-09-13T15:11:56.883Z,98096.09
2022-09-13T15:14:34.914Z,98087.16
2022-09-13T15:17:14.126Z,98095.22
2022-09-13T15:19:48.860Z,98092.53
2022-09-13T15:22:23.278Z,98092.44
2022-09-13T15:25:00.889Z,98092.69
2022-09-13T15:27:31.412Z,98092.53
2022-09-13T15:30:01.184Z,98099.81
2022-09-13T15:32:41.041Z,98090.78
2022-09-13T15:35:36.253Z,98093.22
2022-09-13T15:38:31.723Z,98088.47
2022-09-13T15:41:19.476Z,98092.28
2022-09-13T15:43:48.681Z,98099.22
2022-09-13T15:46:16.711Z,98097.22
2022-09-13T15:49:02.958Z,98100.09
2022-09-13T15:51:30.109Z,98092.22
2022-09-13T15:53:56.675Z,98090.38
2022-09-13T15:56:31.897Z,98100.19
2022-09-13T15:58:58.702Z,98101.22
2022-09-13T16:01:27.504Z,98108.47
2022-09-13T16:03:54.005Z,98096.94
2022-09-13T16:06:24.438Z,98093.66
2022-09-13T16:08:51.327Z,98101.09
2022-09-13T16:11:17.748Z,98091.38
2022-09-13T16:13:44.228Z,98103.34
2022-09-13T16:16:13.833Z,98100.28
2022-09-13T16:18:41.658Z,98090.09
2022-09-13T16:21:08.141Z,98096.94
2022-09-13T16:23:34.622Z,98104.31
2022-09-13T16:26:01.333Z,98107.00
2022-09-13T16:28:28.239Z,98105.25
2022-09-13T16:30:54.784Z,98108.31
2022-09-13T16:33:21.344Z,98102.38
2022-09-13T16:35:47.871Z,98102.88
2022-09-13T16:38:14.474Z,98095.13
2022-09-13T16:40:43.124Z,98093.94
2022-09-13T16:43:10.024Z,98095.41
2022-09-13T16:45:41.386Z,98104.66
2022-09-13T16:48:08.935Z,98097.94
2022-09-13T16:50:36.055Z,98102.69
2022-09-13T16:53:02.877Z,98102.13
2022-09-13T16:55:30.135Z,98108.56
2022-09-13T16:57:56.598Z,98105.25
2022-09-13T17:00:28.415Z,98104.47
2022-09-13T17:02:57.772Z,98110.00
2022-09-13T17:05:25.142Z,98108.28
2022-09-13T17:07:52.516Z,98117.22
2022-09-13T17:10:19.617Z,98107.81
2022-09-13T17:12:46.446Z,98104.47
2022-09-13T17:15:13.096Z,98098.53
2022-09-13T17:17:39.553Z,98105.91
2022-09-13T17:20:10.333Z,98103.47
2022-09-13T17:22:37.044Z,98102.75
2022-09-13T17:25:04.562Z,98099.41
2022-09-13T17:27:31.012Z,98099.53
2022-09-13T17:29:57.542Z,98099.53
2022-09-13T17:32:23.994Z,98104.19
2022-09-13T17:34:50.644Z,98092.88
2022-09-13T17:37:17.263Z,98095.84
2022-09-13T17:39:43.776Z,98100.53
2022-09-13T17:42:10.529Z,98103.31
2022-09-13T17:44:37.160Z,98104.34
2022-09-13T17:47:04.115Z,98103.59
2022-09-13T17:49:30.624Z,98099.31
2022-09-13T17:51:57.841Z,98100.41
2022-09-13T17:54:26.058Z,98103.09
2022-09-13T17:56:52.539Z,98107.56
2022-09-13T17:59:21.312Z,98104.22
2022-09-13T18:01:52.975Z,98111.66
2022-09-13T18:04:21.830Z,98110.84
2022-09-13T18:06:51.204Z,98112.06
2022-09-13T18:09:17.709Z,98117.41
2022-09-13T18:11:44.413Z,98119.03
2022-09-13T18:14:13.814Z,98111.66
2022-09-13T18:16:41.612Z,98116.94
2022-09-13T18:19:08.192Z,98115.28
2022-09-13T18:21:35.006Z,98119.88
2022-09-13T18:24:01.712Z,98116.69
2022-09-13T18:26:30.176Z,98112.84
2022-09-13T18:29:01.839Z,98114.94
2022-09-13T18:31:30.135Z,98115.25
2022-09-13T18:33:59.326Z,98116.19
2022-09-13T18:36:27.430Z,98115.03
2022-09-13T18:38:56.082Z,98116.53
2022-09-13T18:41:25.639Z,98112.69
2022-09-13T18:43:55.797Z,98117.03
2022-09-13T18:46:30.941Z,98111.81
2022-09-13T18:48:58.270Z,98117.16
2022-09-13T18:51:28.800Z,98110.94
2022-09-13T18:53:56.003Z,98111.03
2022-09-13T18:56:23.460Z,98121.22
2022-09-13T18:58:52.468Z,98127.84
2022-09-13T19:01:20.312Z,98123.16
2022-09-13T19:04:00.521Z,98126.66
2022-09-13T19:06:32.838Z,98124.03
2022-09-13T19:09:00.130Z,98124.88
2022-09-13T19:11:46.236Z,98126.75
2022-09-13T19:14:19.607Z,98124.22
2022-09-13T19:16:46.434Z,98127.91
2022-09-13T19:19:13.444Z,98128.84
2022-09-13T19:21:40.679Z,98134.28
2022-09-13T19:24:16.182Z,98134.19
2022-09-13T19:26:44.539Z,98133.56
2022-09-13T19:29:17.149Z,98135.38
2022-09-13T19:31:47.999Z,98136.25
2022-09-13T19:34:15.483Z,98131.09
2022-09-13T19:36:44.193Z,98138.25
2022-09-13T19:39:11.357Z,98132.13
2022-09-13T19:41:39.609Z,98131.75
2022-09-13T19:44:07.001Z,98132.94
2022-09-13T19:46:37.748Z,98137.38
2022-09-13T19:49:05.673Z,98134.84
2022-09-13T19:51:38.256Z,98129.13
2022-09-13T19:54:06.415Z,98134.69
2022-09-13T19:56:35.383Z,98137.09
2022-09-13T19:59:02.991Z,98134.50
2022-09-13T20:01:34.950Z,98134.81
2022-09-13T20:04:04.218Z,98126.78
2022-09-13T20:06:36.123Z,98126.91
2022-09-13T20:09:05.714Z,98130.50
2022-09-13T20:11:33.337Z,98136.00
2022-09-13T20:14:01.025Z,98140.81
2022-09-13T20:16:33.773Z,98134.75
2022-09-13T20:19:01.566Z,98133.75
2022-09-13T20:21:30.903Z,98142.97
2022-09-13T20:24:03.818Z,98143.91
2022-09-13T20:26:32.411Z,98135.91
2022-09-13T20:29:05.714Z,98137.78
2022-09-13T20:31:35.992Z,98140.38
2022-09-13T20:34:04.240Z,98141.56
2022-09-13T20:36:33.726Z,98138.84
2022-09-13T20:39:03.383Z,98138.78
2022-09-13T20:41:31.306Z,98135.16
2022-09-13T20:43:59.779Z,98126.13
2022-09-13T20:46:27.323Z,98126.06
2022-09-13T20:48:53.873Z,98127.00
2022-09-13T20:51:24.367Z,98121.72
2022-09-13T20:53:55.983Z,98126.22
2022-09-13T20:56:23.480Z,98126.13
2022-09-13T20:58:57.134Z,98128.75
2022-09-13T21:01:24.609Z,98126.06
2022-09-13T21:03:53.460Z,98130.03
2022-09-13T21:06:22.495Z,98133.78
2022-09-13T21:08:50.328Z,98127.84
2022-09-13T21:11:20.435Z,98132.09
2022-09-13T21:13:55.660Z,98126.69
2022-09-13T21:16:24.695Z,98142.91
2022-09-13T21:18:52.406Z,98149.28
2022-09-13T21:21:21.391Z,98154.75
2022-09-13T21:23:48.488Z,98151.00
2022-09-13T21:26:17.805Z,98155.00
2022-09-13T21:28:44.493Z,98154.09
2022-09-13T21:31:21.458Z,98147.66
2022-09-13T21:33:48.753Z,98142.38
2022-09-13T21:36:15.306Z,98146.84
2022-09-13T21:38:45.147Z,98150.56
2022-09-13T21:41:15.101Z,98156.09
2022-09-13T21:43:42.721Z,98149.00
2022-09-13T21:46:21.439Z,98153.53
2022-09-13T21:48:50.400Z,98158.03
2022-09-13T21:51:24.184Z,98164.28
2022-09-13T21:53:58.759Z,98163.44
2022-09-13T21:56:28.504Z,98158.16
2022-09-13T21:59:00.433Z,98160.47
2022-09-13T22:01:31.216Z,98154.25
2022-09-13T22:03:58.687Z,98151.84
2022-09-13T22:06:29.100Z,98156.59
2022-09-13T22:09:00.210Z,98154.38
2022-09-13T22:11:35.737Z,98152.47
2022-09-13T22:14:02.482Z,98152.50
2022-09-13T22:16:34.483Z,98155.94
2022-09-13T22:19:09.232Z,98156.88
2022-09-13T22:21:38.990Z,98155.38
2022-09-13T22:24:06.972Z,98150.16
2022-09-13T22:26:36.839Z,98156.38
2022-09-13T22:29:04.220Z,98160.09
2022-09-13T22:31:35.506Z,98158.44
2022-09-13T22:34:02.754Z,98152.13
2022-09-13T22:36:29.439Z,98154.19
2022-09-13T22:38:56.365Z,98151.34
2022-09-13T22:41:28.562Z,98155.56
2022-09-13T22:43:55.689Z,98152.78
2022-09-13T22:46:25.249Z,98152.84
2022-09-13T22:48:59.636Z,98150.91
2022-09-13T22:51:26.662Z,98155.94
2022-09-13T22:53:54.505Z,98151.53
2022-09-13T22:56:26.946Z,98148.91
2022-09-13T22:58:59.351Z,98142.91
2022-09-13T23:01:27.426Z,98152.69
2022-09-13T23:03:54.337Z,98150.84
2022-09-13T23:06:23.178Z,98148.97
2022-09-13T23:08:51.207Z,98151.66
2022-09-13T23:11:21.238Z,98141.66
2022-09-13T23:13:50.052Z,98131.16
2022-09-13T23:16:25.305Z,98133.94
2022-09-13T23:18:53.075Z,98130.41
2022-09-13T23:21:25.843Z,98130.28
2022-09-13T23:23:52.391Z,98120.75
2022-09-13T23:26:21.147Z,98127.81
2022-09-13T23:28:51.592Z,98122.78
2022-09-13T23:31:21.573Z,98111.88
2022-09-13T23:33:51.313Z,98115.34
2022-09-13T23:36:24.025Z,98116.44
2022-09-13T23:38:53.074Z,98114.41
2022-09-13T23:41:20.619Z,98115.06
2022-09-13T23:43:47.282Z,98113.38
2022-09-13T23:46:14.731Z,98114.97
2022-09-13T23:48:44.386Z,98110.06
2022-09-13T23:51:13.981Z,98103.75
2022-09-13T23:53:41.528Z,98104.09
2022-09-13T23:56:08.533Z,98108.63
2022-09-13T23:58:36.449Z,98095.25
